createdAt,value
2023-02-05T00:00:38.541Z,103640.50
2023-02-05T00:01:38.723Z,103641.50
2023-02-05T00:02:39.386Z,103642.33
2023-02-05T00:03:39.496Z,103642.41
2023-02-05T00:04:39.647Z,103643.00
2023-02-05T00:05:39.966Z,103642.91
2023-02-05T00:06:40.663Z,103642.54
2023-02-05T00:06:51.463Z,103641.70
2023-02-05T00:07:51.871Z,103641.53
2023-02-05T00:08:52.365Z,103640.47
2023-02-05T00:09:53.237Z,103640.30
2023-02-05T00:10:53.352Z,103639.97
2023-02-05T00:11:54.789Z,103639.86
2023-02-05T00:12:54.568Z,103639.63
2023-02-05T00:13:55.407Z,103638.79
2023-02-05T00:14:56.433Z,103638.55
2023-02-05T00:15:56.989Z,103637.88
2023-02-05T00:16:58.969Z,103636.81
2023-02-05T00:17:58.435Z,103636.00
2023-02-05T00:18:59.357Z,103635.16
2023-02-05T00:20:00.107Z,103634.52
2023-02-05T00:21:00.630Z,103633.85
2023-02-05T00:22:01.069Z,103632.72
2023-02-05T00:23:01.382Z,103632.05
2023-02-05T00:24:01.612Z,103631.23
2023-02-05T00:25:01.954Z,103630.40
2023-02-05T00:26:02.912Z,103629.66
2023-02-05T00:27:11.545Z,103628.84
2023-02-05T00:28:03.709Z,103627.52
2023-02-05T00:29:04.548Z,103625.94
2023-02-05T00:29:13.913Z,103609.37
2023-02-05T00:30:13.373Z,103608.61
2023-02-05T00:32:17.160Z,103591.30
2023-02-05T00:33:17.236Z,103591.53
2023-02-05T00:34:17.294Z,103591.77
2023-02-05T00:35:17.277Z,103591.94
2023-02-05T00:36:17.673Z,103592.20
2023-02-05T00:37:27.130Z,103592.30
2023-02-05T00:39:01.373Z,103594.08
2023-02-05T00:39:52.364Z,103593.67
2023-02-05T00:40:53.408Z,103593.58
2023-02-05T00:41:53.670Z,103592.64
2023-02-05T00:42:56.310Z,103592.14
2023-02-05T00:43:54.136Z,103591.70
2023-02-05T00:44:55.786Z,103590.47
2023-02-05T00:45:56.817Z,103589.47
2023-02-05T00:46:55.753Z,103588.30
2023-02-05T00:47:55.807Z,103587.29
2023-02-05T00:48:56.428Z,103585.78
2023-02-05T00:49:56.765Z,103584.17
2023-02-05T00:50:57.277Z,103583.01
2023-02-05T00:51:57.346Z,103582.00
2023-02-05T00:53:01.225Z,103581.44
2023-02-05T00:54:00.375Z,103580.77
2023-02-05T00:55:01.264Z,103579.59
2023-02-05T00:56:00.336Z,103578.82
2023-02-05T00:57:01.045Z,103577.31
2023-02-05T00:58:00.706Z,103575.80
2023-02-05T00:59:01.612Z,103574.30
2023-02-05T01:00:02.316Z,103572.96
2023-02-05T01:01:02.852Z,103571.95
2023-02-05T01:02:03.278Z,103570.39
2023-02-05T01:03:03.318Z,103570.05
2023-02-05T01:04:03.479Z,103569.12
2023-02-05T01:04:44.682Z,103565.19
2023-02-05T01:05:44.789Z,103565.09
2023-02-05T01:06:43.842Z,103565.09
2023-02-05T01:07:44.406Z,103564.52
2023-02-05T01:08:44.469Z,103564.19
2023-02-05T01:09:44.473Z,103563.25
2023-02-05T01:10:45.300Z,103562.55
2023-02-05T01:11:45.601Z,103561.65
2023-02-05T01:12:46.355Z,103560.88
2023-02-05T01:13:48.599Z,103560.12
2023-02-05T01:14:47.889Z,103559.02
2023-02-05T01:15:48.819Z,103557.74
2023-02-05T01:16:52.659Z,103556.91
2023-02-05T01:17:51.316Z,103556.07
2023-02-05T01:18:51.286Z,103555.00
2023-02-05T01:19:51.565Z,103554.67
2023-02-05T01:20:51.988Z,103554.16
2023-02-05T01:21:52.280Z,103554.06
2023-02-05T01:22:53.275Z,103552.89
2023-02-05T01:23:54.238Z,103552.48
2023-02-05T01:24:54.458Z,103552.22
2023-02-05T01:25:55.084Z,103552.39
2023-02-05T01:26:56.028Z,103551.39
2023-02-05T01:27:59.106Z,103550.72
2023-02-05T01:28:56.721Z,103550.05
2023-02-05T01:29:56.697Z,103549.31
2023-02-05T01:30:57.500Z,103548.14
2023-02-05T01:31:58.436Z,103547.30
2023-02-05T01:32:59.193Z,103546.13
2023-02-05T01:34:03.716Z,103545.02
2023-02-05T01:35:00.974Z,103543.52
2023-02-05T01:36:01.031Z,103542.78
2023-02-05T01:37:01.307Z,103541.70
2023-02-05T01:38:01.430Z,103540.03
2023-02-05T01:38:12.597Z,103517.52
2023-02-05T01:39:11.701Z,103517.86
2023-02-05T01:40:11.972Z,103517.19
2023-02-05T01:41:12.857Z,103517.32
2023-02-05T01:42:13.414Z,103517.83
2023-02-05T01:43:13.902Z,103518.33
2023-02-05T01:44:14.915Z,103518.77
2023-02-05T01:45:14.924Z,103518.86
2023-02-05T01:46:15.310Z,103519.19
2023-02-05T01:47:15.309Z,103519.59
2023-02-05T01:48:16.218Z,103519.50
2023-02-05T01:49:16.267Z,103519.83
2023-02-05T01:50:16.579Z,103519.73
2023-02-05T01:51:16.890Z,103520.06
2023-02-05T01:52:16.941Z,103519.84
2023-02-05T01:53:17.951Z,103520.24
2023-02-05T01:54:18.315Z,103519.97
2023-02-05T01:55:18.957Z,103519.54
2023-02-05T01:56:19.882Z,103519.14
2023-02-05T01:57:20.641Z,103518.37
2023-02-05T01:58:21.050Z,103518.20
2023-02-05T01:59:21.924Z,103517.27
2023-02-05T02:00:22.698Z,103516.77
2023-02-05T02:01:22.927Z,103515.93
2023-02-05T02:02:22.813Z,103515.43
2023-02-05T02:03:22.980Z,103514.42
2023-02-05T02:04:23.925Z,103513.45
2023-02-05T02:05:24.906Z,103512.61
2023-02-05T02:06:25.589Z,103512.17
2023-02-05T02:07:26.467Z,103511.61
2023-02-05T02:08:27.257Z,103511.27
2023-02-05T02:09:28.083Z,103511.45
2023-02-05T02:10:28.990Z,103511.27
2023-02-05T02:11:29.356Z,103511.25
2023-02-05T02:12:29.617Z,103510.91
2023-02-05T02:13:30.545Z,103510.65
2023-02-05T02:14:31.370Z,103509.55
2023-02-05T02:14:40.509Z,103509.86
2023-02-05T02:15:41.354Z,103509.12
2023-02-05T02:16:42.201Z,103508.95
2023-02-05T02:17:42.943Z,103508.62
2023-02-05T02:18:43.896Z,103508.52
2023-02-05T02:19:44.828Z,103508.45
2023-02-05T02:20:44.873Z,103507.45
2023-02-05T02:21:44.933Z,103506.88
2023-02-05T02:22:45.662Z,103505.97
2023-02-05T02:23:45.855Z,103504.36
2023-02-05T02:24:46.026Z,103502.78
2023-02-05T02:25:46.756Z,103501.45
2023-02-05T02:26:47.138Z,103500.20
2023-02-05T02:27:47.965Z,103499.13
2023-02-05T02:28:48.837Z,103497.86
2023-02-05T02:29:49.727Z,103496.62
2023-02-05T02:30:50.540Z,103495.45
2023-02-05T02:31:51.491Z,103493.87
2023-02-05T02:32:52.274Z,103492.53
2023-02-05T02:33:52.622Z,103491.36
2023-02-05T02:34:53.386Z,103490.45
2023-02-05T02:35:54.346Z,103489.61
2023-02-05T02:36:55.346Z,103488.88
2023-02-05T02:37:55.580Z,103488.30
2023-02-05T02:38:56.356Z,103487.90
2023-02-05T02:39:56.498Z,103486.89
2023-02-05T02:40:56.604Z,103486.12
2023-02-05T02:41:57.620Z,103484.78
2023-02-05T02:42:57.710Z,103483.95
2023-02-05T02:43:57.987Z,103483.70
2023-02-05T02:44:58.181Z,103482.88
2023-02-05T02:45:58.343Z,103482.30
2023-02-05T02:46:59.318Z,103481.13
2023-02-05T02:47:59.566Z,103480.13
2023-02-05T02:48:08.750Z,103475.17
2023-02-05T02:49:08.878Z,103475.00
2023-02-05T02:50:09.271Z,103474.50
2023-02-05T02:51:09.425Z,103474.34
2023-02-05T02:52:10.370Z,103474.17
2023-02-05T02:53:10.891Z,103473.57
2023-02-05T02:54:11.757Z,103473.40
2023-02-05T02:55:12.684Z,103473.50
2023-02-05T02:56:12.771Z,103472.39
2023-02-05T02:57:13.771Z,103471.66
2023-02-05T02:58:14.167Z,103470.73
2023-02-05T02:59:14.312Z,103470.13
2023-02-05T03:00:14.473Z,103469.36
2023-02-05T03:01:14.835Z,103468.86
2023-02-05T03:02:14.845Z,103468.30
2023-02-05T03:03:14.989Z,103468.69
2023-02-05T03:04:16.439Z,103468.69
2023-02-05T03:05:15.655Z,103469.55
2023-02-05T03:06:16.517Z,103469.30
2023-02-05T03:07:16.583Z,103469.45
2023-02-05T03:08:17.335Z,103469.36
2023-02-05T03:09:18.110Z,103469.86
2023-02-05T03:10:19.029Z,103470.20
2023-02-05T03:11:19.151Z,103470.86
2023-02-05T03:12:19.195Z,103471.03
2023-02-05T03:13:20.130Z,103471.30
2023-02-05T03:14:20.929Z,103471.47
2023-02-05T03:15:21.812Z,103471.70
2023-02-05T03:16:22.004Z,103471.95
2023-02-05T03:17:22.841Z,103472.45
2023-02-05T03:18:23.377Z,103473.28
2023-02-05T03:18:35.030Z,103497.84
2023-02-05T03:19:35.869Z,103497.09
2023-02-05T03:20:36.726Z,103496.77
2023-02-05T03:21:37.036Z,103497.09
2023-02-05T03:22:37.106Z,103496.47
2023-02-05T03:23:37.216Z,103496.14
2023-02-05T03:24:37.413Z,103495.71
2023-02-05T03:25:38.164Z,103496.19
2023-02-05T03:26:38.447Z,103496.90
2023-02-05T03:27:38.666Z,103497.28
2023-02-05T03:28:39.578Z,103497.42
2023-02-05T03:29:40.402Z,103498.23
2023-02-05T05:05:39.063Z,103497.11
2023-02-05T05:06:39.793Z,103498.12
2023-02-05T05:07:39.833Z,103497.85
2023-02-05T05:08:40.400Z,103497.68
2023-02-05T05:09:41.390Z,103498.19
2023-02-05T05:10:42.074Z,103498.13
2023-02-05T05:11:42.959Z,103498.19
2023-02-05T05:12:43.159Z,103498.09
2023-02-05T05:13:44.177Z,103498.16
2023-02-05T05:14:44.412Z,103498.59
2023-02-05T05:15:44.795Z,103499.17
2023-02-05T05:16:45.478Z,103499.23
2023-02-05T05:17:45.562Z,103498.74
2023-02-05T05:18:46.334Z,103499.11
2023-02-05T05:19:46.884Z,103499.45
2023-02-05T05:20:47.750Z,103499.59
2023-02-05T05:21:48.358Z,103499.77
2023-02-05T05:22:48.936Z,103500.56
2023-02-05T05:23:49.739Z,103501.30
2023-02-05T05:24:50.506Z,103502.25
2023-02-05T05:25:50.575Z,103502.81
2023-02-05T05:26:51.266Z,103504.48
2023-02-05T05:27:52.094Z,103505.83
2023-02-05T05:28:52.488Z,103506.91
2023-02-05T05:29:53.299Z,103508.24
2023-02-05T05:30:53.873Z,103509.25
2023-02-05T05:31:54.022Z,103509.82
2023-02-05T05:32:54.379Z,103510.66
2023-02-05T05:33:54.387Z,103511.42
2023-02-05T05:34:54.569Z,103512.02
2023-02-05T05:35:55.283Z,103512.79
2023-02-05T05:36:56.056Z,103513.96
2023-02-05T05:37:56.523Z,103513.96
2023-02-05T05:38:57.216Z,103514.83
2023-02-05T05:39:57.790Z,103515.56
2023-02-05T05:40:06.538Z,103542.50
2023-02-05T05:41:07.331Z,103541.91
2023-02-05T05:42:07.978Z,103541.06
2023-02-05T05:43:08.383Z,103539.73
2023-02-05T05:44:08.707Z,103538.80
2023-02-05T05:45:09.691Z,103537.28
2023-02-05T05:46:09.956Z,103536.12
2023-02-05T05:47:10.594Z,103534.61
2023-02-05T05:48:11.324Z,103533.70
2023-02-05T05:49:11.572Z,103532.20
2023-02-05T05:50:12.124Z,103530.59
2023-02-05T05:51:12.476Z,103528.48
2023-02-05T05:52:13.399Z,103526.81
2023-02-05T05:53:13.448Z,103524.57
2023-02-05T05:54:13.614Z,103522.56
2023-02-05T05:55:14.240Z,103520.78
2023-02-05T05:56:15.078Z,103518.77
2023-02-05T05:57:15.852Z,103516.77
2023-02-05T05:58:16.530Z,103515.09
2023-02-05T05:59:17.240Z,103513.68
2023-02-05T06:00:17.984Z,103511.67
2023-02-05T06:01:18.573Z,103509.50
2023-02-05T06:02:19.369Z,103507.25
2023-02-05T06:03:20.206Z,103504.58
2023-02-05T06:04:21.091Z,103501.56
2023-02-05T06:05:21.864Z,103498.88
2023-02-05T06:06:22.446Z,103495.44
2023-02-05T06:07:23.305Z,103493.36
2023-02-05T06:08:23.437Z,103491.02
2023-02-05T06:09:24.203Z,103490.00
2023-02-05T06:10:24.891Z,103488.33
2023-02-05T06:11:25.586Z,103487.42
2023-02-05T06:12:26.489Z,103486.19
2023-02-05T06:13:27.327Z,103484.41
2023-02-05T06:14:27.618Z,103482.81
2023-02-05T06:14:37.310Z,103472.36
2023-02-05T06:15:37.773Z,103472.80
2023-02-05T06:16:38.279Z,103471.76
2023-02-05T06:17:39.087Z,103470.93
2023-02-05T06:18:39.497Z,103470.23
2023-02-05T06:19:40.345Z,103469.47
2023-02-05T06:20:41.169Z,103469.38
2023-02-05T06:21:41.920Z,103469.11
2023-02-05T06:22:42.673Z,103469.16
2023-02-05T06:23:43.514Z,103468.80
2023-02-05T06:24:43.534Z,103468.67
2023-02-05T06:25:44.313Z,103469.34
2023-02-05T06:26:46.100Z,103469.15
2023-02-05T06:27:45.652Z,103468.86
2023-02-05T06:28:46.598Z,103468.27
2023-02-05T06:29:46.713Z,103468.08
2023-02-05T06:30:47.732Z,103467.45
2023-02-05T06:31:48.144Z,103466.83
2023-02-05T06:32:48.696Z,103466.30
2023-02-05T06:33:49.526Z,103465.80
2023-02-05T06:34:49.781Z,103464.61
2023-02-05T06:35:50.744Z,103464.48
2023-02-05T06:36:51.171Z,103464.31
2023-02-05T06:37:51.742Z,103464.16
2023-02-05T06:38:52.349Z,103464.39
2023-02-05T06:39:52.847Z,103464.63
2023-02-05T06:40:53.526Z,103465.63
2023-02-05T06:41:53.940Z,103466.80
2023-02-05T06:42:54.655Z,103467.81
2023-02-05T06:43:55.243Z,103468.48
2023-02-05T06:44:55.872Z,103469.15
2023-02-05T06:45:56.368Z,103470.42
2023-02-05T06:46:56.965Z,103471.69
2023-02-05T06:47:57.938Z,103472.75
2023-02-05T06:48:58.668Z,103474.52
2023-02-05T06:49:07.906Z,103519.22
2023-02-05T06:50:08.559Z,103518.95
2023-02-05T06:51:09.346Z,103518.28
2023-02-05T06:52:09.914Z,103517.62
2023-02-05T06:53:11.922Z,103516.95
2023-02-05T06:54:11.459Z,103516.28
2023-02-05T06:55:12.193Z,103515.27
2023-02-05T06:56:12.920Z,103513.94
2023-02-05T06:57:13.813Z,103512.91
2023-02-05T06:58:13.995Z,103511.30
2023-02-05T06:59:14.681Z,103510.03
2023-02-05T07:00:15.658Z,103508.53
2023-02-05T07:01:15.933Z,103507.16
2023-02-05T07:02:16.750Z,103505.56
2023-02-05T07:03:17.581Z,103504.30
2023-02-05T07:04:18.363Z,103502.89
2023-02-05T07:05:19.077Z,103500.64
2023-02-05T07:06:19.768Z,103499.06
2023-02-05T07:07:20.464Z,103497.08
2023-02-05T07:08:21.019Z,103495.86
2023-02-05T07:09:21.904Z,103494.61
2023-02-05T07:10:22.322Z,103493.23
2023-02-05T07:11:23.092Z,103492.08
2023-02-05T07:12:23.222Z,103491.13
2023-02-05T07:13:23.840Z,103490.18
2023-02-05T07:14:24.340Z,103489.36
2023-02-05T07:15:24.750Z,103488.05
2023-02-05T07:16:25.173Z,103487.83
2023-02-05T07:17:25.711Z,103486.35
2023-02-05T07:18:26.524Z,103485.54
2023-02-05T07:19:27.181Z,103484.96
2023-02-05T07:20:28.537Z,103484.13
2023-02-05T07:21:27.870Z,103483.38
2023-02-05T07:21:36.622Z,103481.32
2023-02-05T07:22:36.983Z,103480.72
2023-02-05T07:23:37.583Z,103479.64
2023-02-05T07:24:38.098Z,103478.30
2023-02-05T07:25:38.824Z,103477.23
2023-02-05T07:26:39.648Z,103476.39
2023-02-05T07:27:40.516Z,103475.48
2023-02-05T07:28:41.198Z,103474.31
2023-02-05T07:29:41.612Z,103473.23
2023-02-05T07:30:42.318Z,103472.23
2023-02-05T07:31:42.851Z,103471.33
2023-02-05T07:32:43.556Z,103469.55
2023-02-05T07:33:44.357Z,103468.98
2023-02-05T07:34:45.119Z,103467.14
2023-02-05T07:35:45.849Z,103465.80
2023-02-05T07:36:46.710Z,103465.03
2023-02-05T07:37:47.410Z,103464.19
2023-02-05T07:38:47.479Z,103462.95
2023-02-05T07:39:48.198Z,103461.94
2023-02-05T07:40:48.808Z,103460.70
2023-02-05T07:41:49.225Z,103460.05
2023-02-05T07:42:50.158Z,103458.78
2023-02-05T07:43:51.160Z,103457.78
2023-02-05T07:44:52.083Z,103457.03
2023-02-05T07:45:52.862Z,103455.97
2023-02-05T07:46:53.664Z,103455.96
2023-02-05T07:47:53.632Z,103455.55
2023-02-05T07:48:53.817Z,103454.98
2023-02-05T07:49:54.488Z,103454.14
2023-02-05T07:50:54.800Z,103454.06
2023-02-05T07:51:55.689Z,103453.25
2023-02-05T07:52:56.591Z,103452.75
2023-02-05T07:53:57.455Z,103452.78
2023-02-05T07:54:07.198Z,103457.23
2023-02-05T07:55:07.298Z,103457.73
2023-02-05T07:56:08.172Z,103456.23
2023-02-05T07:57:08.965Z,103455.48
2023-02-05T07:58:08.934Z,103454.48
2023-02-05T07:59:09.360Z,103453.64
2023-02-05T08:00:09.353Z,103452.47
2023-02-05T08:01:10.092Z,103451.47
2023-02-05T08:02:11.076Z,103450.46
2023-02-05T08:03:11.920Z,103450.05
2023-02-05T08:04:12.875Z,103449.05
2023-02-05T08:05:12.882Z,103448.31
2023-02-05T08:06:13.005Z,103448.14
2023-02-05T08:07:13.849Z,103447.37
2023-02-05T08:08:14.059Z,103446.20
2023-02-05T08:09:14.664Z,103445.39
2023-02-05T08:10:15.354Z,103445.05
2023-02-05T08:11:16.309Z,103444.07
2023-02-05T08:12:16.662Z,103443.33
2023-02-05T08:13:18.409Z,103442.31
2023-02-05T08:14:17.927Z,103442.44
2023-02-05T08:15:18.217Z,103441.59
2023-02-05T08:16:18.858Z,103440.63
2023-02-05T08:17:19.508Z,103439.69
2023-02-05T08:18:19.528Z,103438.77
2023-02-05T08:19:20.443Z,103438.27
2023-02-05T08:20:21.164Z,103437.86
2023-02-05T08:21:22.151Z,103437.36
2023-02-05T08:22:22.713Z,103436.09
2023-02-05T08:23:23.405Z,103435.52
2023-02-05T08:24:24.065Z,103434.17
2023-02-05T08:25:24.813Z,103433.94
2023-02-05T08:26:24.930Z,103433.53
2023-02-05T08:27:25.962Z,103432.92
2023-02-05T08:27:34.672Z,103439.06
2023-02-05T08:28:35.636Z,103439.39
2023-02-05T08:29:36.586Z,103437.72
2023-02-05T08:30:36.945Z,103436.74
2023-02-05T08:31:37.080Z,103435.50
2023-02-05T08:32:37.801Z,103434.23
2023-02-05T08:33:38.766Z,103432.74
2023-02-05T08:34:39.001Z,103431.91
2023-02-05T08:35:39.600Z,103431.27
2023-02-05T08:36:39.792Z,103430.34
2023-02-05T08:37:40.041Z,103429.44
2023-02-05T08:38:40.998Z,103427.95
2023-02-05T08:39:41.535Z,103426.63
2023-02-05T08:40:41.575Z,103425.65
2023-02-05T08:41:41.843Z,103424.06
2023-02-05T08:42:41.905Z,103422.91
2023-02-05T08:43:42.490Z,103421.83
2023-02-05T08:44:42.673Z,103420.34
2023-02-05T08:45:43.447Z,103419.89
2023-02-05T08:47:11.064Z,103416.20
2023-02-05T08:48:17.107Z,103416.87
2023-02-05T08:49:11.577Z,103415.77
2023-02-05T08:50:12.146Z,103414.57
2023-02-05T08:51:12.650Z,103414.67
2023-02-05T08:52:13.608Z,103414.27
2023-02-05T08:53:13.754Z,103413.69
2023-02-05T08:54:14.271Z,103413.25
2023-02-05T08:55:14.488Z,103412.84
2023-02-05T08:56:14.860Z,103411.84
2023-02-05T08:57:15.380Z,103411.20
2023-02-05T08:58:16.249Z,103409.75
2023-02-05T08:59:16.403Z,103408.34
2023-02-05T09:00:16.427Z,103407.27
2023-02-05T09:01:17.456Z,103406.59
2023-02-05T09:02:17.362Z,103405.44
2023-02-05T09:03:17.573Z,103404.26
2023-02-05T09:04:18.153Z,103403.28
2023-02-05T09:05:18.621Z,103402.09
2023-02-05T09:06:19.167Z,103400.95
2023-02-05T09:07:19.248Z,103399.94
2023-02-05T09:08:19.416Z,103398.70
2023-02-05T09:09:19.949Z,103397.45
2023-02-05T09:10:20.191Z,103396.67
2023-02-05T09:11:20.749Z,103396.20
2023-02-05T09:12:20.970Z,103395.36
2023-02-05T09:13:21.579Z,103395.02
2023-02-05T09:14:23.575Z,103394.71
2023-02-05T09:15:22.935Z,103394.03
2023-02-05T09:16:23.824Z,103393.39
2023-02-05T09:17:24.184Z,103392.97
2023-02-05T09:18:24.688Z,103392.13
2023-02-05T09:18:33.392Z,103394.36
2023-02-05T09:19:34.112Z,103393.79
2023-02-05T09:20:34.079Z,103392.62
2023-02-05T09:21:34.568Z,103391.16
2023-02-05T09:22:34.866Z,103390.32
2023-02-05T09:23:34.748Z,103388.72
2023-02-05T09:24:35.585Z,103387.97
2023-02-05T09:25:36.261Z,103386.50
2023-02-05T09:26:36.898Z,103385.33
2023-02-05T09:27:37.572Z,103384.23
2023-02-05T09:28:38.401Z,103383.20
2023-02-05T09:29:38.414Z,103382.04
2023-02-05T09:30:38.916Z,103380.44
2023-02-05T09:31:39.840Z,103379.07
2023-02-05T09:32:40.561Z,103378.14
2023-02-05T09:33:40.708Z,103376.47
2023-02-05T09:34:41.442Z,103375.87
2023-02-05T09:35:42.341Z,103374.97
2023-02-05T09:36:42.881Z,103374.10
2023-02-05T09:37:43.520Z,103373.60
2023-02-05T09:38:44.361Z,103373.02
2023-02-05T09:40:18.941Z,103372.02
2023-02-05T09:40:45.885Z,103371.35
2023-02-05T09:41:00.403Z,103363.38
2023-02-05T09:42:01.472Z,103363.61
2023-02-05T09:43:00.819Z,103362.77
2023-02-05T09:44:01.302Z,103361.70
2023-02-05T09:45:33.773Z,103358.60
2023-02-05T09:46:33.836Z,103358.84
2023-02-05T09:47:34.464Z,103358.77
2023-02-05T09:48:35.308Z,103358.09
2023-02-05T09:49:35.888Z,103357.59
2023-02-05T09:50:36.844Z,103357.33
2023-02-05T09:51:36.864Z,103356.75
2023-02-05T09:52:37.466Z,103356.34
2023-02-05T09:53:38.093Z,103356.11
2023-02-05T09:54:39.016Z,103355.77
2023-02-05T09:55:39.584Z,103355.28
2023-02-05T09:56:40.134Z,103354.84
2023-02-05T09:57:40.101Z,103355.37
2023-02-05T09:58:40.778Z,103355.37
2023-02-05T09:59:40.952Z,103355.95
2023-02-05T10:00:41.352Z,103356.05
2023-02-05T10:01:41.440Z,103356.59
2023-02-05T10:02:42.062Z,103357.25
2023-02-05T10:03:42.494Z,103357.34
2023-02-05T10:04:43.468Z,103357.67
2023-02-05T10:05:43.647Z,103357.53
2023-02-05T10:06:43.925Z,103357.95
2023-02-05T10:07:44.429Z,103357.95
2023-02-05T10:08:44.913Z,103358.23
2023-02-05T10:09:45.408Z,103357.99
2023-02-05T10:10:46.341Z,103357.98
2023-02-05T10:11:46.829Z,103358.08
2023-02-05T10:12:47.397Z,103358.02
2023-02-05T10:13:48.298Z,103357.73
2023-02-05T10:14:49.357Z,103358.36
2023-02-05T10:15:49.301Z,103358.19
2023-02-05T10:16:50.060Z,103358.12
2023-02-05T10:17:01.827Z,103370.16
2023-02-05T10:18:02.465Z,103370.22
2023-02-05T10:19:03.203Z,103369.38
2023-02-05T10:20:04.125Z,103368.55
2023-02-05T10:21:04.140Z,103367.80
2023-02-05T10:22:05.048Z,103365.86
2023-02-05T10:23:05.577Z,103364.63
2023-02-05T10:24:07.162Z,103362.69
2023-02-05T10:25:06.957Z,103361.67
2023-02-05T10:26:07.918Z,103360.17
2023-02-05T10:27:07.982Z,103358.41
2023-02-05T10:28:09.005Z,103356.39
2023-02-05T10:29:09.726Z,103354.98
2023-02-05T10:30:10.378Z,103353.97
2023-02-05T10:31:11.294Z,103351.78
2023-02-05T10:32:11.518Z,103350.11
2023-02-05T10:33:12.373Z,103347.75
2023-02-05T10:34:12.900Z,103345.74
2023-02-05T10:35:13.447Z,103343.89
2023-02-05T10:36:49.248Z,103313.69
2023-02-05T10:37:48.775Z,103313.75
2023-02-05T10:38:49.210Z,103313.52
2023-02-05T10:39:49.894Z,103312.92
2023-02-05T10:40:50.693Z,103312.25
2023-02-05T10:41:51.112Z,103311.75
2023-02-05T10:42:51.365Z,103310.91
2023-02-05T10:43:51.529Z,103310.23
2023-02-05T10:44:51.641Z,103309.83
2023-02-05T10:45:52.444Z,103309.56
2023-02-05T10:46:53.001Z,103309.16
2023-02-05T10:48:39.438Z,103295.84
2023-02-05T10:49:37.154Z,103296.52
2023-02-05T10:50:37.618Z,103296.25
2023-02-05T10:51:38.487Z,103296.02
2023-02-05T10:52:41.120Z,103296.86
2023-02-05T10:54:16.901Z,103297.16
2023-02-05T10:54:43.099Z,103297.23
2023-02-05T10:55:40.333Z,103297.66
2023-02-05T10:56:40.463Z,103297.30
2023-02-05T10:57:40.720Z,103297.22
2023-02-05T10:58:41.721Z,103297.22
2023-02-05T10:59:41.600Z,103296.52
2023-02-05T11:00:42.251Z,103296.37
2023-02-05T11:01:42.519Z,103295.50
2023-02-05T11:02:43.355Z,103295.23
2023-02-05T11:03:43.516Z,103295.23
2023-02-05T11:04:44.254Z,103294.84
2023-02-05T11:05:44.618Z,103294.41
2023-02-05T11:06:44.826Z,103293.81
2023-02-05T11:07:45.740Z,103292.55
2023-02-05T11:08:45.995Z,103292.14
2023-02-05T11:09:46.260Z,103291.71
2023-02-05T11:10:46.416Z,103291.55
2023-02-05T11:11:47.269Z,103291.47
2023-02-05T11:12:47.435Z,103290.97
2023-02-05T11:13:48.280Z,103290.19
2023-02-05T11:14:05.118Z,103284.81
2023-02-05T11:15:05.848Z,103285.05
2023-02-05T11:16:06.083Z,103285.32
2023-02-05T11:17:06.209Z,103284.13
2023-02-05T11:18:09.309Z,103283.94
2023-02-05T11:19:08.008Z,103283.95
2023-02-05T11:20:14.491Z,103283.52
2023-02-05T11:21:09.926Z,103283.18
2023-02-05T11:22:10.784Z,103282.94
2023-02-05T11:23:11.406Z,103282.53
2023-02-05T11:24:12.259Z,103281.69
2023-02-05T11:25:12.336Z,103279.77
2023-02-05T11:26:12.586Z,103279.36
2023-02-05T11:27:12.976Z,103278.59
2023-02-05T11:28:13.860Z,103277.69
2023-02-05T11:29:14.110Z,103277.75
2023-02-05T11:30:14.594Z,103277.27
2023-02-05T11:31:15.280Z,103276.25
2023-02-05T11:32:15.351Z,103275.67
2023-02-05T11:33:15.915Z,103275.79
2023-02-05T11:34:15.993Z,103275.30
2023-02-05T11:35:16.625Z,103275.28
2023-02-05T11:36:17.438Z,103275.47
2023-02-05T11:37:17.912Z,103276.33
2023-02-05T11:38:19.269Z,103276.52
2023-02-05T11:39:18.727Z,103277.61
2023-02-05T11:39:29.693Z,103283.28
2023-02-05T11:40:29.860Z,103282.89
2023-02-05T11:41:30.333Z,103282.61
2023-02-05T11:42:31.167Z,103282.20
2023-02-05T11:43:32.143Z,103281.97
2023-02-05T11:44:33.001Z,103282.23
2023-02-05T11:45:33.738Z,103282.06
2023-02-05T11:46:34.862Z,103282.06
2023-02-05T11:47:34.773Z,103282.40
2023-02-05T11:48:34.882Z,103283.06
2023-02-05T11:49:34.997Z,103283.42
2023-02-05T11:50:35.857Z,103283.58
2023-02-05T11:51:36.533Z,103284.17
2023-02-05T11:53:23.319Z,103295.13
2023-02-05T11:54:24.369Z,103295.20
2023-02-05T11:55:28.892Z,103295.40
2023-02-05T11:56:25.562Z,103294.56
2023-02-05T11:57:27.084Z,103294.23
2023-02-05T11:58:34.820Z,103293.55
2023-02-05T11:59:24.656Z,103292.63
2023-02-05T12:00:24.509Z,103292.13
2023-02-05T12:01:24.644Z,103291.72
2023-02-05T12:02:25.511Z,103290.97
2023-02-05T12:03:26.421Z,103290.20
2023-02-05T12:04:27.900Z,103289.46
2023-02-05T12:05:27.238Z,103288.45
2023-02-05T12:06:27.956Z,103288.13
2023-02-05T12:07:28.183Z,103287.11
2023-02-05T12:08:29.069Z,103285.80
2023-02-05T12:09:30.013Z,103285.05
2023-02-05T12:09:49.257Z,103279.81
2023-02-05T12:10:49.179Z,103279.55
2023-02-05T12:11:50.130Z,103279.30
2023-02-05T12:12:51.053Z,103278.88
2023-02-05T12:13:51.914Z,103278.48
2023-02-05T12:14:52.313Z,103278.55
2023-02-05T12:15:55.989Z,103277.78
2023-02-05T12:16:53.799Z,103277.72
2023-02-05T12:17:54.781Z,103277.53
2023-02-05T12:18:55.069Z,103277.01
2023-02-05T12:19:55.599Z,103276.69
2023-02-05T12:20:55.689Z,103276.75
2023-02-05T12:21:09.774Z,103267.95
2023-02-05T12:22:06.757Z,103268.46
2023-02-05T12:23:09.818Z,103267.89
2023-02-05T12:24:07.903Z,103267.80
2023-02-05T12:25:08.633Z,103267.30
2023-02-05T12:26:09.120Z,103266.96
2023-02-05T12:27:09.916Z,103267.47
2023-02-05T12:28:10.154Z,103266.96
2023-02-05T12:29:10.772Z,103267.30
2023-02-05T12:30:17.106Z,103267.80
2023-02-05T12:31:11.796Z,103268.73
2023-02-05T12:32:12.293Z,103269.51
2023-02-05T12:33:12.470Z,103269.84
2023-02-05T12:34:13.005Z,103270.50
2023-02-05T12:35:13.010Z,103270.77
2023-02-05T12:36:13.637Z,103271.36
2023-02-05T12:37:14.656Z,103271.94
2023-02-05T12:38:21.171Z,103272.11
2023-02-05T12:39:16.964Z,103272.70
2023-02-05T12:40:15.839Z,103272.39
2023-02-05T12:41:16.185Z,103272.47
2023-02-05T12:42:17.138Z,103272.21
2023-02-05T12:43:18.043Z,103272.45
2023-02-05T12:44:18.836Z,103272.55
2023-02-05T12:45:20.797Z,103272.28
2023-02-05T12:46:20.866Z,103272.05
2023-02-05T12:46:33.357Z,103282.16
2023-02-05T12:47:33.750Z,103281.73
2023-02-05T12:48:34.658Z,103281.50
2023-02-05T12:49:35.426Z,103281.73
2023-02-05T12:50:36.677Z,103281.08
2023-02-05T12:51:36.317Z,103281.25
2023-02-05T12:52:36.623Z,103280.81
2023-02-05T12:53:38.951Z,103280.14